createdAt,value
2022-10-26T00:02:39.609Z,12.55
2022-10-26T00:05:44.325Z,17.95
2022-10-26T00:08:49.927Z,5.43
2022-10-26T00:11:54.641Z,5.85
2022-10-26T00:14:59.305Z,5.40
2022-10-26T00:18:03.563Z,16.70
2022-10-26T00:21:09.766Z,13.30
2022-10-26T00:24:14.641Z,7.55
2022-10-26T00:27:18.981Z,10.00
2022-10-26T00:30:23.370Z,8.63
2022-10-26T00:33:28.560Z,11.82
2022-10-26T00:36:33.052Z,13.30
2022-10-26T00:39:37.503Z,10.40
2022-10-26T00:42:41.781Z,4.68
2022-10-26T00:45:47.505Z,11.75
2022-10-26T00:51:57.769Z,7.25
2022-10-26T00:55:02.516Z,4.57
2022-10-26T00:58:09.564Z,6.80
2022-10-26T01:01:14.221Z,6.00
2022-10-26T01:04:19.244Z,7.90
2022-10-26T01:07:23.871Z,10.87
2022-10-26T01:10:29.193Z,9.13
2022-10-26T01:13:36.791Z,4.57
2022-10-26T01:17:18.373Z,6.53
2022-10-26T01:20:49.683Z,4.50
2022-10-26T01:24:23.354Z,7.70
2022-10-26T01:27:37.096Z,6.10
2022-10-26T01:30:46.924Z,15.88
2022-10-26T01:34:07.630Z,21.25
2022-10-26T01:37:27.397Z,15.85
2022-10-26T01:40:37.716Z,12.52
2022-10-26T01:44:04.370Z,12.82
2022-10-26T01:47:10.956Z,9.23
2022-10-26T01:50:16.453Z,9.27
2022-10-26T01:53:21.447Z,5.88
2022-10-26T01:56:30.965Z,5.43
2022-10-26T01:59:53.614Z,8.48
2022-10-26T02:03:25.767Z,4.10
2022-10-26T02:06:41.666Z,15.40
2022-10-26T02:10:21.654Z,6.72
2022-10-26T02:13:44.117Z,8.38
2022-10-26T02:16:56.895Z,6.25
2022-10-26T02:20:05.708Z,3.90
2022-10-26T02:23:12.826Z,4.63
2022-10-26T02:26:21.602Z,7.70
2022-10-26T02:29:27.887Z,10.95
2022-10-26T02:32:38.824Z,9.48
2022-10-26T02:35:48.241Z,8.80
2022-10-26T02:38:55.342Z,10.38
2022-10-26T02:42:03.749Z,8.82
2022-10-26T02:45:20.260Z,8.60
2022-10-26T02:48:25.622Z,8.23
2022-10-26T02:51:33.081Z,11.98
2022-10-26T02:55:06.684Z,22.55
2022-10-26T02:58:18.523Z,7.30
2022-10-26T03:01:23.073Z,10.48
2022-10-26T03:04:35.111Z,17.98
2022-10-26T03:07:39.531Z,10.10
2022-10-26T03:10:46.550Z,4.50
2022-10-26T03:13:51.092Z,4.97
2022-10-26T03:16:55.556Z,6.50
2022-10-26T03:20:00.119Z,15.80
2022-10-26T03:23:04.616Z,5.55
2022-10-26T03:26:09.170Z,4.95
2022-10-26T03:29:13.669Z,10.07
2022-10-26T03:32:17.807Z,6.38
2022-10-26T03:35:22.483Z,18.70
2022-10-26T03:38:26.811Z,30.17
2022-10-26T03:41:31.242Z,22.33
2022-10-26T03:44:35.817Z,16.52
2022-10-26T03:47:48.719Z,10.38
2022-10-26T03:50:53.046Z,8.57
2022-10-26T03:53:57.383Z,49.35
2022-10-26T03:57:01.786Z,12.45
2022-10-26T04:00:06.962Z,5.95
2022-10-26T04:03:15.902Z,9.68
2022-10-26T04:06:20.258Z,7.55
2022-10-26T04:09:24.747Z,6.85
2022-10-26T04:12:29.009Z,10.77
2022-10-26T04:15:33.621Z,9.55
2022-10-26T04:18:38.072Z,8.63
2022-10-26T04:21:42.628Z,13.82
2022-10-26T04:24:46.874Z,10.00
2022-10-26T04:27:51.492Z,8.05
2022-10-26T04:30:56.151Z,9.77
2022-10-26T04:34:00.646Z,7.70
2022-10-26T04:37:04.824Z,9.85
2022-10-26T04:40:09.786Z,11.48
2022-10-26T04:43:14.151Z,12.85
2022-10-26T04:46:18.592Z,8.18
2022-10-26T04:49:22.948Z,61.33
2022-10-26T04:52:27.309Z,7.68
2022-10-26T04:55:32.243Z,9.07
2022-10-26T04:58:36.704Z,8.73
2022-10-26T05:01:41.167Z,8.20
2022-10-26T05:04:45.853Z,9.02
2022-10-26T05:07:56.792Z,8.83
2022-10-26T05:11:01.111Z,10.32
2022-10-26T05:14:05.790Z,15.38
2022-10-26T05:17:10.101Z,12.07
2022-10-26T05:20:15.347Z,10.10
2022-10-26T05:23:20.157Z,7.68
2022-10-26T05:26:25.687Z,17.03
2022-10-26T05:32:36.033Z,19.17
2022-10-26T05:35:41.038Z,9.82
2022-10-26T05:38:45.606Z,7.57
2022-10-26T05:41:50.037Z,17.77
2022-10-26T05:44:54.469Z,9.45
2022-10-26T05:48:02.521Z,18.27
2022-10-26T05:51:07.526Z,19.60
2022-10-26T05:54:13.982Z,30.38
2022-10-26T05:57:19.074Z,28.40
2022-10-26T06:00:26.451Z,26.25
2022-10-26T06:04:07.278Z,26.90
2022-10-26T06:07:30.029Z,20.13
2022-10-26T06:10:34.862Z,18.67
2022-10-26T06:13:39.533Z,22.13
2022-10-26T06:16:44.167Z,18.77
2022-10-26T06:20:17.676Z,24.67
2022-10-26T06:23:34.599Z,72.43
2022-10-26T06:26:39.219Z,132.30
2022-10-26T06:29:50.771Z,112.50
2022-10-26T06:33:05.744Z,22.73
2022-10-26T06:36:29.786Z,16.00
2022-10-26T06:39:43.561Z,31.08
2022-10-26T06:42:48.194Z,16.63
2022-10-26T06:46:09.527Z,31.92
2022-10-26T06:49:31.463Z,25.98
2022-10-26T06:52:44.266Z,20.98
2022-10-26T06:55:51.635Z,25.20
2022-10-26T06:59:04.786Z,60.78
2022-10-26T07:02:13.537Z,38.73
2022-10-26T07:05:18.302Z,14.80
2022-10-26T07:08:22.873Z,13.20
2022-10-26T07:11:27.514Z,28.67
2022-10-26T07:14:31.791Z,21.95
2022-10-26T07:17:50.591Z,73.63
2022-10-26T07:20:55.293Z,46.90
2022-10-26T07:23:59.830Z,39.15
2022-10-26T07:27:04.051Z,43.63
2022-10-26T07:30:09.377Z,34.53
2022-10-26T07:33:15.567Z,39.78
2022-10-26T07:36:20.119Z,22.75
2022-10-26T07:39:24.912Z,23.20
2022-10-26T07:42:29.330Z,21.03
2022-10-26T07:45:34.637Z,30.92
2022-10-26T07:48:40.520Z,30.98
2022-10-26T07:51:45.100Z,24.13
2022-10-26T07:54:49.399Z,22.67
2022-10-26T07:57:55.605Z,28.38
2022-10-26T08:01:08.334Z,22.25
2022-10-26T08:04:13.052Z,27.05
2022-10-26T08:07:17.303Z,21.02
2022-10-26T08:10:21.819Z,12.23
2022-10-26T08:13:26.268Z,16.92
2022-10-26T08:16:30.917Z,20.35
2022-10-26T08:19:36.129Z,19.20
2022-10-26T08:22:40.470Z,16.40
2022-10-26T08:25:44.830Z,14.88
2022-10-26T08:28:51.033Z,10.57
2022-10-26T08:31:55.479Z,11.55
2022-10-26T08:34:59.787Z,11.13
2022-10-26T08:38:04.130Z,20.52
2022-10-26T08:41:10.238Z,13.30
2022-10-26T08:44:39.710Z,9.63
2022-10-26T08:47:49.133Z,21.17
2022-10-26T08:50:54.928Z,13.15
2022-10-26T08:57:31.408Z,20.48
2022-10-26T09:00:36.429Z,17.95
2022-10-26T09:03:41.238Z,24.10
2022-10-26T09:06:51.369Z,22.23
2022-10-26T09:14:01.450Z,26.38
2022-10-26T09:17:49.711Z,23.70
2022-10-26T09:21:18.877Z,13.48
2022-10-26T09:24:42.151Z,20.33
2022-10-26T09:27:51.854Z,14.35
2022-10-26T09:30:59.492Z,22.30
2022-10-26T09:34:09.184Z,14.30
2022-10-26T09:37:19.846Z,18.92
2022-10-26T09:40:54.425Z,18.92
2022-10-26T09:44:17.601Z,17.35
2022-10-26T09:47:44.556Z,11.20
2022-10-26T09:50:52.217Z,23.65
2022-10-26T09:53:59.238Z,34.05
2022-10-26T09:57:06.065Z,16.83
2022-10-26T10:00:22.603Z,23.23
2022-10-26T10:03:30.455Z,22.15
2022-10-26T10:06:35.034Z,14.70
2022-10-26T10:09:39.681Z,17.20
2022-10-26T10:12:48.158Z,15.15
2022-10-26T10:16:07.579Z,11.13
2022-10-26T10:19:25.214Z,13.70
2022-10-26T10:22:29.412Z,14.27
2022-10-26T10:25:41.079Z,13.45
2022-10-26T10:29:00.188Z,25.13
2022-10-26T10:32:05.201Z,14.18
2022-10-26T10:35:26.533Z,19.25
2022-10-26T10:38:31.210Z,33.13
2022-10-26T10:41:38.243Z,18.03
2022-10-26T10:44:45.039Z,16.75
2022-10-26T10:48:14.362Z,13.50
2022-10-26T10:51:24.152Z,12.25
2022-10-26T10:54:40.235Z,13.65
2022-10-26T10:57:59.021Z,10.40
2022-10-26T11:01:03.890Z,13.38
2022-10-26T11:04:34.953Z,19.75
2022-10-26T11:07:51.963Z,29.55
2022-10-26T11:11:04.356Z,8.25
2022-10-26T11:14:45.143Z,41.83
2022-10-26T11:18:08.480Z,11.80
2022-10-26T11:21:37.731Z,12.40
2022-10-26T11:25:03.934Z,14.02
2022-10-26T11:28:30.679Z,14.32
2022-10-26T11:31:43.506Z,15.15
2022-10-26T11:34:59.573Z,17.17
2022-10-26T11:39:01.629Z,13.50
2022-10-26T11:42:25.143Z,12.00
2022-10-26T11:45:45.323Z,17.33
2022-10-26T11:49:12.410Z,11.98
2022-10-26T11:52:26.621Z,11.82
2022-10-26T11:55:32.243Z,10.05
2022-10-26T11:58:39.428Z,14.98
2022-10-26T12:01:44.991Z,13.20
2022-10-26T12:05:01.494Z,16.48
2022-10-26T12:08:26.922Z,11.90
2022-10-26T12:12:06.114Z,52.90
2022-10-26T12:15:40.067Z,11.70
2022-10-26T12:19:00.842Z,17.60
2022-10-26T12:22:06.402Z,11.98
2022-10-26T12:25:16.471Z,10.48
2022-10-26T12:28:38.907Z,13.45
2022-10-26T12:31:44.826Z,12.40
2022-10-26T12:34:55.730Z,11.32
2022-10-26T12:38:01.525Z,26.13
2022-10-26T12:41:13.281Z,23.23
2022-10-26T12:44:43.133Z,15.80
2022-10-26T12:47:51.474Z,20.65
2022-10-26T12:50:56.226Z,21.30
2022-10-26T12:54:22.081Z,20.95
2022-10-26T12:57:38.806Z,19.48
2022-10-26T13:01:11.625Z,21.02
2022-10-26T13:04:26.875Z,17.60
2022-10-26T13:07:40.292Z,23.13
2022-10-26T13:11:08.061Z,21.48
2022-10-26T13:14:36.614Z,18.35
2022-10-26T13:17:41.179Z,21.33
2022-10-26T13:21:09.524Z,23.95
2022-10-26T13:24:16.137Z,17.63
2022-10-26T13:27:20.700Z,17.20
2022-10-26T13:30:48.785Z,21.05
2022-10-26T13:33:55.873Z,17.50
2022-10-26T13:37:02.767Z,16.98
2022-10-26T13:40:08.449Z,19.10
2022-10-26T13:46:27.737Z,18.92
2022-10-26T13:49:39.705Z,14.27
2022-10-26T13:52:48.790Z,13.68
2022-10-26T13:56:22.636Z,15.13
2022-10-26T13:59:30.083Z,19.13
2022-10-26T14:02:34.570Z,18.63
2022-10-26T14:05:44.674Z,16.25
2022-10-26T14:08:51.589Z,22.02
2022-10-26T14:11:59.657Z,22.00
2022-10-26T14:15:11.286Z,31.02
2022-10-26T14:18:40.030Z,76.30
2022-10-26T14:21:50.653Z,51.28
2022-10-26T14:25:00.814Z,38.30
2022-10-26T14:28:29.924Z,25.35
2022-10-26T14:31:36.684Z,27.08
2022-10-26T14:34:41.010Z,20.63
2022-10-26T14:38:04.007Z,21.95
2022-10-26T14:41:08.643Z,17.02
2022-10-26T14:44:20.719Z,17.80
2022-10-26T14:47:34.578Z,17.88
2022-10-26T14:50:39.067Z,21.92
2022-10-26T14:53:51.106Z,20.13
2022-10-26T14:56:56.022Z,17.02
2022-10-26T15:00:14.746Z,18.83
2022-10-26T15:03:19.414Z,18.83
2022-10-26T15:06:35.718Z,24.58
2022-10-26T15:09:43.368Z,25.55
2022-10-26T15:12:47.789Z,16.67
2022-10-26T15:15:54.943Z,13.00
2022-10-26T15:19:12.217Z,14.70
2022-10-26T15:22:32.062Z,13.93
2022-10-26T15:25:36.997Z,17.60
2022-10-26T15:28:45.223Z,19.95
2022-10-26T15:32:02.304Z,16.25
2022-10-26T15:35:26.655Z,17.45
2022-10-26T15:38:32.092Z,14.55
2022-10-26T15:44:47.259Z,19.65
2022-10-26T15:47:54.078Z,18.90
2022-10-26T15:50:59.172Z,18.17
2022-10-26T15:54:05.406Z,19.10
2022-10-26T15:57:16.722Z,19.63
2022-10-26T16:00:23.833Z,19.58
2022-10-26T16:03:29.762Z,18.25
2022-10-26T16:06:36.599Z,18.48
2022-10-26T16:09:42.015Z,21.40
2022-10-26T16:12:46.335Z,18.52
2022-10-26T16:15:50.828Z,21.00
2022-10-26T16:19:11.868Z,18.17
2022-10-26T16:22:23.286Z,25.52
2022-10-26T16:25:28.010Z,16.23
2022-10-26T16:28:32.535Z,17.80
2022-10-26T16:31:37.241Z,14.32
2022-10-26T16:34:41.564Z,15.55
2022-10-26T16:37:46.983Z,19.48
2022-10-26T16:40:51.569Z,13.90
2022-10-26T16:43:57.769Z,16.35
2022-10-26T16:47:02.091Z,17.90
2022-10-26T16:50:07.272Z,20.75
2022-10-26T16:53:11.624Z,17.73
2022-10-26T16:56:28.172Z,17.90
2022-10-26T16:59:32.918Z,21.92
2022-10-26T17:02:37.324Z,21.90
2022-10-26T17:05:41.999Z,18.98
2022-10-26T17:08:46.456Z,23.40
2022-10-26T17:11:50.915Z,27.40
2022-10-26T17:14:57.083Z,20.27
2022-10-26T17:18:03.276Z,18.83
2022-10-26T17:21:10.072Z,22.23
2022-10-26T17:24:14.581Z,27.55
2022-10-26T17:27:19.947Z,27.80
2022-10-26T17:30:24.385Z,29.25
2022-10-26T17:33:28.809Z,27.70
2022-10-26T17:36:33.143Z,24.48
2022-10-26T17:39:38.830Z,28.80
2022-10-26T17:42:43.539Z,28.20
2022-10-26T17:45:48.202Z,27.48
2022-10-26T17:49:00.647Z,31.80
2022-10-26T17:52:06.846Z,27.73
2022-10-26T17:55:11.377Z,28.13
2022-10-26T17:58:15.937Z,26.45
2022-10-26T18:01:21.098Z,24.00
2022-10-26T18:04:25.519Z,28.20
2022-10-26T18:07:31.143Z,22.40
2022-10-26T18:10:38.655Z,28.27
2022-10-26T18:13:44.305Z,24.75
2022-10-26T18:16:48.916Z,23.63
2022-10-26T18:19:54.611Z,26.65
2022-10-26T18:26:06.649Z,26.05
2022-10-26T18:29:14.261Z,28.10
2022-10-26T18:32:18.823Z,31.85
2022-10-26T18:35:23.219Z,24.92
2022-10-26T18:38:27.443Z,26.77
2022-10-26T18:41:32.025Z,25.60
2022-10-26T18:44:36.407Z,24.98
2022-10-26T18:47:40.730Z,22.83
2022-10-26T18:50:45.873Z,28.98
2022-10-26T18:53:50.772Z,26.38
2022-10-26T18:56:55.084Z,24.43
2022-10-26T19:00:01.913Z,21.17
2022-10-26T19:03:08.427Z,20.20
2022-10-26T19:09:26.249Z,20.25
2022-10-26T19:12:31.931Z,25.38
2022-10-26T19:15:36.616Z,30.17
2022-10-26T19:18:40.971Z,40.50
2022-10-26T19:21:46.815Z,54.72
2022-10-26T19:24:51.217Z,59.33
2022-10-26T19:27:56.235Z,69.40
2022-10-26T19:31:01.203Z,68.30
2022-10-26T19:34:06.768Z,72.85
2022-10-26T19:37:11.189Z,87.05
2022-10-26T19:40:15.735Z,81.75
2022-10-26T19:43:20.202Z,78.55
2022-10-26T19:46:27.094Z,80.05
2022-10-26T19:49:31.440Z,71.75
2022-10-26T19:52:37.280Z,77.97
2022-10-26T19:55:45.840Z,74.70
2022-10-26T19:58:52.832Z,74.18
2022-10-26T20:01:58.920Z,81.55
2022-10-26T20:05:03.445Z,82.45
2022-10-26T20:08:09.302Z,75.82
2022-10-26T20:11:16.991Z,76.78
2022-10-26T20:14:21.516Z,81.40
2022-10-26T20:17:28.521Z,77.88
2022-10-26T20:20:34.965Z,83.13
2022-10-26T20:23:39.435Z,77.93
2022-10-26T20:26:43.410Z,84.25
2022-10-26T20:29:47.821Z,80.80
2022-10-26T20:32:52.351Z,82.63
2022-10-26T20:36:00.689Z,93.10
2022-10-26T20:39:06.159Z,92.05
2022-10-26T20:42:23.768Z,107.65
2022-10-26T20:45:34.639Z,90.95
2022-10-26T20:48:39.490Z,106.57
2022-10-26T20:52:19.509Z,102.70
2022-10-26T20:56:00.028Z,110.45
2022-10-26T20:59:05.133Z,112.57
2022-10-26T21:02:12.620Z,112.45
2022-10-26T21:05:19.180Z,98.68
2022-10-26T21:08:24.247Z,120.13
2022-10-26T21:11:28.669Z,101.50
2022-10-26T21:14:37.517Z,108.70
2022-10-26T21:17:42.384Z,99.10
2022-10-26T21:20:47.048Z,138.80
2022-10-26T21:23:51.235Z,148.95
2022-10-26T21:26:56.346Z,119.32
2022-10-26T21:30:00.862Z,115.00
2022-10-26T21:33:07.586Z,110.75
2022-10-26T21:36:13.496Z,138.75
2022-10-26T21:42:22.008Z,115.93
2022-10-26T21:45:26.256Z,91.03
2022-10-26T21:48:31.802Z,105.68
2022-10-26T21:51:36.496Z,99.57
2022-10-26T21:54:40.999Z,99.90
2022-10-26T21:57:45.558Z,81.28
2022-10-26T22:00:49.981Z,89.35
2022-10-26T22:03:54.436Z,97.45
2022-10-26T22:06:59.053Z,80.70
2022-10-26T22:10:11.123Z,72.22
2022-10-26T22:13:16.251Z,84.28
2022-10-26T22:16:24.230Z,68.18
2022-10-26T22:19:28.471Z,53.95
2022-10-26T22:22:32.980Z,49.00
2022-10-26T22:25:37.271Z,48.15
2022-10-26T22:28:43.598Z,47.55
2022-10-26T22:31:47.773Z,43.15
2022-10-26T22:35:00.284Z,40.22
2022-10-26T22:38:14.991Z,44.15
2022-10-26T22:41:20.254Z,39.83
2022-10-26T22:44:24.944Z,37.53
2022-10-26T22:47:29.783Z,50.25
2022-10-26T22:50:34.293Z,40.73
2022-10-26T22:53:39.060Z,36.80
2022-10-26T22:56:43.456Z,32.40
2022-10-26T22:59:47.877Z,29.27
2022-10-26T23:02:52.131Z,23.27
2022-10-26T23:05:58.083Z,27.42
2022-10-26T23:09:02.466Z,40.25
2022-10-26T23:12:06.904Z,34.53
2022-10-26T23:15:11.539Z,35.63
2022-10-26T23:18:15.968Z,32.65
2022-10-26T23:21:21.670Z,23.65
2022-10-26T23:27:30.454Z,29.10
2022-10-26T23:30:34.698Z,28.55
2022-10-26T23:33:38.929Z,35.80
2022-10-26T23:36:43.175Z,30.45
2022-10-26T23:39:47.508Z,26.50
2022-10-26T23:42:51.962Z,30.00
2022-10-26T23:45:57.742Z,26.08
2022-10-26T23:49:02.265Z,24.75
2022-10-26T23:52:06.791Z,29.02
2022-10-26T23:55:11.308Z,27.13
2022-10-26T23:58:16.897Z,31.73
